Time;durP1;ratioP1;P1;durP2;ratioP2;P2;SDS_P1;SDS_P2;PMS_P1;PMS_P2;Temp;Humidity;BMP_temperature;BMP_pressure;BME280_temperature;BME280_humidity;BME280_pressure;Samples;Min_cycle;Max_cycle;Signal;HPM_P1;HPM_P2
2021/04/04 00:00:04;;;;;;;5.72;5.18;;;;;;;5.58;26.00;101992.44;4984483;28;97682;-76
2021/04/04 00:02:38;;;;;;;7.50;5.32;;;;;;;5.63;26.26;101996.28;4984507;28;98829;-76
2021/04/04 00:05:07;;;;;;;10.02;5.65;;;;;;;5.66;26.13;101996.47;4983184;28;98890;-76
2021/04/04 00:07:38;;;;;;;5.70;5.00;;;;;;;5.69;26.06;101993.09;4984241;28;98033;-76
2021/04/04 00:10:07;;;;;;;5.82;5.30;;;;;;;5.73;26.12;101997.75;4965248;28;97508;-76
2021/04/04 00:12:34;;;;;;;5.40;4.90;;;;;;;5.74;25.89;101999.59;4982611;28;97950;-76
2021/04/04 00:15:03;;;;;;;6.78;5.80;;;;;;;5.76;25.96;101993.56;4984947;28;97933;-77
2021/04/04 00:17:30;;;;;;;6.40;5.38;;;;;;;5.78;25.85;101991.00;4981298;28;97241;-76
2021/04/04 00:19:56;;;;;;;6.57;4.97;;;;;;;5.78;26.15;101993.63;4983279;28;97188;-75
2021/04/04 00:22:23;;;;;;;5.20;4.75;;;;;;;5.78;25.93;101989.28;4969744;28;97840;-75
2021/04/04 00:24:51;;;;;;;6.00;5.38;;;;;;;5.79;25.90;101988.47;4949127;28;99773;-76
2021/04/04 00:27:18;;;;;;;5.88;4.93;;;;;;;5.78;26.06;101991.91;4982706;28;97859;-77
2021/04/04 00:29:44;;;;;;;7.90;6.28;;;;;;;5.79;26.06;101987.56;4963731;28;96919;-76
2021/04/04 00:32:11;;;;;;;8.07;5.97;;;;;;;5.79;26.11;101983.19;4965442;28;99492;-76
2021/04/04 00:34:38;;;;;;;7.03;5.78;;;;;;;5.78;26.03;101981.34;4964552;28;98255;-77
2021/04/04 00:37:05;;;;;;;7.22;5.68;;;;;;;5.80;25.83;101974.44;4961875;28;97533;-78
2021/04/04 00:39:31;;;;;;;7.28;5.50;;;;;;;5.78;26.00;101968.16;4982576;28;96970;-76
2021/04/04 00:41:59;;;;;;;6.10;5.13;;;;;;;5.77;26.06;101974.25;4964981;28;100722;-77
2021/04/04 00:44:27;;;;;;;7.00;5.25;;;;;;;5.78;26.00;101969.88;4997142;28;99587;-76
2021/04/04 00:46:53;;;;;;;5.45;4.95;;;;;;;5.76;26.19;101971.50;4947200;28;96940;-76
2021/04/04 00:49:20;;;;;;;6.40;5.05;;;;;;;5.75;25.95;101960.06;4983158;28;97219;-76
2021/04/04 00:51:47;;;;;;;6.78;6.10;;;;;;;5.74;26.04;101966.13;4949220;28;99267;-76
2021/04/04 00:54:18;;;;;;;6.07;5.47;;;;;;;5.74;26.21;101968.78;4948837;28;99332;-77
2021/04/04 00:56:45;;;;;;;6.30;5.53;;;;;;;5.71;26.06;101968.59;4995704;28;97902;-76
2021/04/04 00:59:13;;;;;;;7.07;5.72;;;;;;;5.70;26.02;101977.38;4964632;28;97201;-76
2021/04/04 01:01:43;;;;;;;6.07;5.53;;;;;;;5.68;26.16;101963.16;4965265;28;100319;-78
2021/04/04 01:04:10;;;;;;;7.05;5.50;;;;;;;5.66;26.29;101970.06;4983752;28;97492;-76
2021/04/04 01:06:37;;;;;;;8.90;6.00;;;;;;;5.65;26.35;101975.25;4964427;28;97395;-76
2021/04/04 01:09:04;;;;;;;8.55;6.35;;;;;;;5.62;26.29;101980.34;4996662;28;97364;-76
2021/04/04 01:11:38;;;;;;;6.78;5.93;;;;;;;5.58;26.25;101968.69;4996793;28;99903;-76
2021/04/04 01:14:12;;;;;;;7.35;4.75;;;;;;;5.52;26.53;101970.94;4996621;28;98748;-77
2021/04/04 01:16:42;;;;;;;11.65;6.30;;;;;;;5.52;26.44;101970.94;4996326;28;98230;-76
2021/04/04 01:19:12;;;;;;;6.40;5.80;;;;;;;5.53;26.58;101988.63;4954903;28;97503;-76
2021/04/04 01:21:42;;;;;;;7.75;6.72;;;;;;;5.53;26.45;101977.16;4981655;28;97970;-77
2021/04/04 01:24:29;;;;;;;7.07;5.68;;;;;;;5.51;26.92;101979.69;4946710;28;102283;-77
2021/04/04 01:27:03;;;;;;;6.88;5.15;;;;;;;5.51;26.60;101978.78;4966694;28;97795;-77
2021/04/04 01:29:33;;;;;;;7.13;6.53;;;;;;;5.49;26.72;101975.13;4986291;28;96924;-77
2021/04/04 01:32:00;;;;;;;6.05;5.45;;;;;;;5.48;26.72;101976.88;4967140;28;97727;-77
2021/04/04 01:34:29;;;;;;;6.18;5.60;;;;;;;5.45;26.74;101971.41;4977767;28;99935;-77
2021/04/04 01:37:03;;;;;;;7.80;6.80;;;;;;;5.42;26.71;101984.44;4963528;28;97763;-76
2021/04/04 01:39:34;;;;;;;7.22;6.32;;;;;;;5.42;26.82;101978.22;4947980;28;97902;-77
2021/04/04 01:42:02;;;;;;;6.88;6.30;;;;;;;5.40;26.87;101978.13;4963888;28;100937;-77
2021/04/04 01:44:29;;;;;;;8.45;6.35;;;;;;;5.34;26.92;101969.84;4947680;28;99958;-76
2021/04/04 01:46:57;;;;;;;7.25;6.28;;;;;;;5.24;27.00;101978.03;4981919;28;97679;-77
2021/04/04 01:49:24;;;;;;;7.60;6.72;;;;;;;5.14;26.70;101984.47;4963559;28;97368;-76
2021/04/04 01:51:52;;;;;;;7.68;6.88;;;;;;;5.10;26.99;101978.91;4963749;28;99488;-77
2021/04/04 01:54:19;;;;;;;9.63;7.45;;;;;;;5.08;26.97;101981.44;4964638;28;99595;-77
2021/04/04 01:56:47;;;;;;;9.80;6.93;;;;;;;5.07;27.08;101976.06;4978722;28;97314;-77
2021/04/04 01:59:15;;;;;;;7.93;7.13;;;;;;;5.05;27.14;101973.34;4980972;28;98059;-77
2021/04/04 02:01:44;;;;;;;8.45;6.88;;;;;;;5.04;27.16;101963.63;4958778;28;98184;-77
2021/04/04 02:04:12;;;;;;;6.50;5.90;;;;;;;5.04;27.29;101974.16;4967053;28;99024;-78
2021/04/04 02:06:42;;;;;;;7.55;6.85;;;;;;;5.01;27.15;101968.66;4978881;28;97168;-77
2021/04/04 02:09:10;;;;;;;7.72;6.10;;;;;;;4.99;27.30;101974.66;4980537;28;97515;-77
2021/04/04 02:11:38;;;;;;;6.20;5.60;;;;;;;4.95;27.10;101967.38;4981691;28;98181;-77
2021/04/04 02:14:07;;;;;;;5.57;5.07;;;;;;;4.92;27.13;101964.50;4981549;28;97934;-77
2021/04/04 02:16:35;;;;;;;6.40;5.30;;;;;;;4.93;27.16;101969.00;4978867;28;97228;-77
2021/04/04 02:19:03;;;;;;;7.38;5.68;;;;;;;4.90;27.17;101963.53;4963173;28;97662;-78
2021/04/04 02:21:31;;;;;;;5.90;5.30;;;;;;;4.82;27.14;101951.59;4978910;28;98032;-77
2021/04/04 02:24:00;;;;;;;5.60;5.07;;;;;;;4.78;27.29;101946.91;4963306;28;101049;-77
2021/04/04 02:26:29;;;;;;;5.65;5.30;;;;;;;4.78;27.14;101946.91;4995405;28;96774;-77
2021/04/04 02:28:56;;;;;;;5.30;4.88;;;;;;;4.78;27.27;101946.91;4981324;28;97298;-77
2021/04/04 02:31:24;;;;;;;5.85;5.15;;;;;;;4.80;27.15;101953.22;4964220;28;99370;-78
2021/04/04 02:33:55;;;;;;;8.43;5.25;;;;;;;4.70;27.28;101949.06;4961969;28;97775;-78
2021/04/04 02:36:24;;;;;;;4.93;4.53;;;;;;;4.58;27.40;101947.38;4981551;28;96760;-77
2021/04/04 02:38:57;;;;;;;5.32;4.82;;;;;;;4.50;27.44;101952.16;4981896;28;97289;-78
2021/04/04 02:41:24;;;;;;;7.32;4.55;;;;;;;4.49;27.73;101946.81;4988696;28;100833;-77
2021/04/04 02:43:52;;;;;;;5.82;5.20;;;;;;;4.48;27.74;101942.38;4981082;28;98775;-78
2021/04/04 02:46:21;;;;;;;5.10;4.80;;;;;;;4.49;27.40;101949.44;4983374;28;97820;-78
2021/04/04 02:48:57;;;;;;;5.22;4.70;;;;;;;4.47;27.30;101938.81;4966440;28;97095;-77
2021/04/04 02:51:28;;;;;;;5.32;4.93;;;;;;;4.53;27.45;101936.56;4998202;28;99827;-78
2021/04/04 02:53:56;;;;;;;5.32;4.80;;;;;;;4.58;27.35;101942.13;4966377;28;100881;-77
2021/04/04 02:56:24;;;;;;;5.25;4.75;;;;;;;4.59;27.19;101933.41;4984448;28;97196;-77
2021/04/04 02:58:54;;;;;;;5.60;5.13;;;;;;;4.61;27.27;101931.78;4983478;28;97173;-77
2021/04/04 03:01:25;;;;;;;5.78;5.28;;;;;;;4.60;27.52;101930.88;4966661;28;99769;-76
2021/04/04 03:03:52;;;;;;;5.68;5.18;;;;;;;4.62;27.52;101928.31;4983358;28;99380;-76
2021/04/04 03:06:20;;;;;;;6.38;5.75;;;;;;;4.59;27.70;101929.03;4949273;28;98658;-76
2021/04/04 03:08:47;;;;;;;7.85;5.43;;;;;;;4.56;27.45;101923.56;4963798;28;97057;-76
2021/04/04 03:11:16;;;;;;;6.75;6.05;;;;;;;4.55;27.72;101926.13;4964953;28;97701;-76
2021/04/04 03:13:46;;;;;;;7.18;6.57;;;;;;;4.57;27.95;101921.84;4965003;28;100613;-76
2021/04/04 03:16:13;;;;;;;6.78;5.75;;;;;;;4.57;27.65;101924.50;4947425;28;97203;-75
2021/04/04 03:18:42;;;;;;;7.03;5.93;;;;;;;4.53;27.65;101928.66;4981731;28;98189;-76
2021/04/04 03:21:10;;;;;;;6.65;5.78;;;;;;;4.48;27.70;101924.78;4973185;28;97612;-76
2021/04/04 03:23:37;;;;;;;6.22;5.70;;;;;;;4.41;27.94;101926.97;4981727;28;98089;-76
2021/04/04 03:26:06;;;;;;;5.95;5.35;;;;;;;4.32;28.02;101929.91;4980954;28;97499;-76
2021/04/04 03:28:33;;;;;;;8.45;5.15;;;;;;;4.19;28.05;101919.38;4998516;28;97248;-76
2021/04/04 03:31:02;;;;;;;6.80;4.88;;;;;;;4.10;28.00;101924.97;4964022;28;101010;-76
2021/04/04 03:33:29;;;;;;;5.93;5.32;;;;;;;3.98;28.39;101923.28;4965179;28;98113;-76
2021/04/04 03:35:57;;;;;;;5.50;5.07;;;;;;;3.86;28.16;101915.47;4984886;28;97209;-77
2021/04/04 03:38:25;;;;;;;5.22;4.78;;;;;;;3.79;28.46;101913.25;4966876;28;97115;-77
2021/04/04 03:40:53;;;;;;;5.40;5.00;;;;;;;3.77;28.74;101908.72;4982447;28;98088;-76
2021/04/04 03:43:23;;;;;;;4.80;4.40;;;;;;;3.74;28.14;101905.84;4981047;28;100833;-76
2021/04/04 03:45:52;;;;;;;5.68;5.20;;;;;;;3.73;28.79;101907.56;4981451;28;97589;-77
2021/04/04 03:48:20;;;;;;;5.45;4.97;;;;;;;3.74;28.34;101911.13;4982680;28;98103;-75
2021/04/04 03:50:48;;;;;;;6.05;5.40;;;;;;;3.71;28.46;101906.56;4984121;28;97882;-76
2021/04/04 03:53:36;;;;;;;4.80;4.40;;;;;;;3.67;28.82;101901.91;4982700;28;99222;-78
2021/04/04 03:56:05;;;;;;;4.45;4.13;;;;;;;3.65;28.12;101914.06;4954756;28;97393;-76
2021/04/04 03:58:34;;;;;;;5.45;4.80;;;;;;;3.61;29.02;101906.72;4967720;28;97247;-77
2021/04/04 04:01:03;;;;;;;4.85;4.40;;;;;;;3.55;28.66;101911.56;4979818;28;99867;-78
2021/04/04 04:03:32;;;;;;;5.60;5.07;;;;;;;3.55;29.04;101910.69;4990986;28;100710;-75
2021/04/04 04:06:00;;;;;;;6.07;5.32;;;;;;;3.54;29.06;101908.84;4998483;28;98023;-77
2021/04/04 04:08:28;;;;;;;8.93;5.05;;;;;;;3.54;28.72;101912.38;4985729;28;97266;-76
2021/04/04 04:11:14;;;;;;;7.13;5.35;;;;;;;3.49;28.94;101908.53;4973296;28;98955;-76
2021/04/04 04:13:42;;;;;;;5.82;4.43;;;;;;;3.43;28.42;101908.13;4946725;28;100796;-76
2021/04/04 04:16:11;;;;;;;6.78;5.20;;;;;;;3.38;28.94;101912.16;4963955;28;97182;-75
2021/04/04 04:18:41;;;;;;;7.85;5.10;;;;;;;3.30;28.87;101910.72;4979100;28;97838;-74
2021/04/04 04:21:08;;;;;;;5.05;4.65;;;;;;;3.24;29.33;101907.66;4964600;28;100749;-77
2021/04/04 04:23:36;;;;;;;8.85;6.05;;;;;;;3.19;29.41;101911.72;4964992;28;99301;-77
2021/04/04 04:26:03;;;;;;;8.45;5.60;;;;;;;3.13;29.02;101912.19;4996409;28;97552;-77
2021/04/04 04:28:30;;;;;;;8.57;5.40;;;;;;;3.10;29.73;101911.06;4963826;28;97222;-77
2021/04/04 04:30:58;;;;;;;11.45;6.13;;;;;;;3.04;29.45;101908.94;4998471;28;99266;-78
2021/04/04 04:33:26;;;;;;;8.32;5.90;;;;;;;2.95;29.55;101916.19;4948388;28;97400;-77
2021/04/04 04:35:53;;;;;;;9.07;5.85;;;;;;;2.91;29.78;101910.63;4964907;28;98074;-77
2021/04/04 04:38:20;;;;;;;7.85;6.25;;;;;;;2.91;30.22;101914.16;4964664;28;97052;-77
2021/04/04 04:40:47;;;;;;;10.10;6.63;;;;;;;2.94;30.26;101914.38;4964008;28;99422;-77
2021/04/04 04:43:16;;;;;;;10.27;6.43;;;;;;;2.93;30.39;101909.91;4980899;28;97729;-77
2021/04/04 04:45:42;;;;;;;8.52;6.38;;;;;;;2.92;30.58;101909.81;4964175;28;97383;-77
2021/04/04 04:48:09;;;;;;;13.80;6.18;;;;;;;2.92;30.57;101901.91;4964517;28;96979;-77
2021/04/04 04:50:38;;;;;;;11.45;7.22;;;;;;;2.95;30.96;101903.03;4982211;28;98746;-77
2021/04/04 04:53:05;;;;;;;11.15;6.53;;;;;;;2.99;29.99;101901.53;4982391;28;97928;-77
2021/04/04 04:55:33;;;;;;;10.80;6.15;;;;;;;3.04;30.29;101906.31;4964400;28;96826;-77
2021/04/04 04:58:00;;;;;;;11.20;6.43;;;;;;;3.11;30.43;101900.66;4979375;28;97032;-77
2021/04/04 05:00:28;;;;;;;12.45;6.45;;;;;;;3.15;29.91;101894.81;4980812;28;98618;-77
2021/04/04 05:02:55;;;;;;;8.68;6.60;;;;;;;3.20;30.33;101893.41;4962640;28;99315;-77
2021/04/04 05:05:40;;;;;;;11.45;6.45;;;;;;;3.22;30.81;101890.91;4963656;28;98133;-77
2021/04/04 05:08:09;;;;;;;7.65;6.30;;;;;;;3.20;30.81;101900.41;4981667;28;97700;-77
2021/04/04 05:10:36;;;;;;;10.27;6.07;;;;;;;3.11;30.25;101899.78;4962652;28;97048;-77
2021/04/04 05:13:04;;;;;;;10.15;7.43;;;;;;;3.10;30.86;101901.47;4981327;28;97615;-77
2021/04/04 05:15:30;;;;;;;10.80;5.97;;;;;;;3.11;31.13;101894.50;4962662;28;97402;-77
2021/04/04 05:17:57;;;;;;;10.25;6.38;;;;;;;3.15;30.78;101889.56;4981521;28;98551;-77
2021/04/04 05:20:24;;;;;;;11.00;6.55;;;;;;;3.20;31.06;101888.13;4979497;28;98170;-77
2021/04/04 05:22:52;;;;;;;9.27;6.20;;;;;;;3.22;31.46;101894.41;4946772;28;98150;-77
2021/04/04 05:25:19;;;;;;;15.05;6.63;;;;;;;3.24;31.16;101891.88;4981259;28;97578;-77
2021/04/04 05:27:46;;;;;;;9.80;6.55;;;;;;;3.29;30.70;101882.63;4995374;28;97724;-77
2021/04/04 05:30:14;;;;;;;10.75;6.97;;;;;;;3.30;31.03;101884.41;4993568;28;98000;-77
2021/04/04 05:32:45;;;;;;;12.30;6.57;;;;;;;3.32;31.89;101895.97;4982439;28;98049;-75
2021/04/04 05:35:13;;;;;;;8.55;6.03;;;;;;;3.32;31.13;101889.78;4985301;28;96656;-74
2021/04/04 05:37:47;;;;;;;13.00;6.45;;;;;;;3.31;31.46;101887.97;4947078;28;98257;-75
2021/04/04 05:40:21;;;;;;;8.57;6.38;;;;;;;3.31;31.64;101888.88;4980834;28;98169;-75
2021/04/04 05:42:51;;;;;;;47.72;19.13;;;;;;;3.32;31.63;101892.41;4946224;28;100624;-75
2021/04/04 05:45:23;;;;;;;14.30;7.93;;;;;;;3.36;31.50;101881.28;4962322;28;97863;-76
2021/04/04 05:48:00;;;;;;;12.38;6.30;;;;;;;3.37;31.87;101884.03;4993798;28;97956;-76
2021/04/04 05:50:30;;;;;;;11.57;6.35;;;;;;;3.38;31.52;101883.22;4961964;28;100942;-75
2021/04/04 05:53:01;;;;;;;11.07;6.03;;;;;;;3.35;32.08;101874.22;4962266;28;99857;-75
2021/04/04 05:55:36;;;;;;;8.60;6.60;;;;;;;3.38;32.91;101885.88;4977638;28;96948;-75
2021/04/04 05:58:07;;;;;;;8.45;6.10;;;;;;;3.32;32.29;101884.50;4981547;28;97568;-76
2021/04/04 06:00:35;;;;;;;11.02;6.00;;;;;;;3.30;32.09;101892.31;4995139;28;99427;-76
2021/04/04 06:03:50;;;;;;;10.57;6.85;;;;;;;3.28;34.69;101886.03;4996523;28;101547;-76
2021/04/04 06:06:52;;;;;;;9.38;7.25;;;;;;;3.34;34.34;101880.28;4971765;28;97767;-76
2021/04/04 06:09:42;;;;;;;14.48;7.30;;;;;;;3.42;33.80;101880.00;4979280;28;97923;-75
2021/04/04 06:12:17;;;;;;;9.88;6.75;;;;;;;3.49;32.22;101879.59;4949776;28;98522;-76
2021/04/04 06:15:05;;;;;;;13.70;6.43;;;;;;;3.58;33.25;101882.84;4946748;28;97740;-76
2021/04/04 06:17:36;;;;;;;15.77;7.22;;;;;;;3.63;32.42;101886.69;4944884;28;96820;-75
2021/04/04 06:20:13;;;;;;;13.63;7.57;;;;;;;3.72;32.10;101892.59;4980476;28;97236;-76
2021/04/04 06:22:49;;;;;;;11.77;6.13;;;;;;;3.79;32.35;101893.91;4945466;28;97653;-75
2021/04/04 06:25:28;;;;;;;9.63;7.07;;;;;;;3.82;32.39;101892.41;4977439;28;99140;-76
2021/04/04 06:28:03;;;;;;;15.25;7.65;;;;;;;3.84;32.33;101898.66;4945167;28;97458;-75
2021/04/04 06:30:50;;;;;;;12.40;6.35;;;;;;;3.80;32.41;101891.38;4962256;28;97338;-77
2021/04/04 06:33:25;;;;;;;14.48;6.95;;;;;;;3.80;32.47;101894.03;4980450;28;97985;-75
2021/04/04 06:36:06;;;;;;;10.05;6.85;;;;;;;3.84;33.17;101897.75;4958948;28;99274;-75
2021/04/04 06:38:50;;;;;;;9.00;7.03;;;;;;;3.91;33.79;101900.91;4960682;28;97668;-75
2021/04/04 06:41:28;;;;;;;15.75;6.80;;;;;;;3.97;32.67;101900.41;4960893;28;97337;-76
2021/04/04 06:44:03;;;;;;;18.63;7.35;;;;;;;4.02;32.27;101904.22;4976977;28;99274;-75
2021/04/04 06:46:40;;;;;;;11.32;5.97;;;;;;;4.09;32.49;101903.81;4960307;28;98006;-76
2021/04/04 06:49:19;;;;;;;20.35;11.32;;;;;;;4.20;32.95;101903.72;4979296;28;96867;-76
2021/04/04 06:51:53;;;;;;;15.18;7.95;;;;;;;4.29;32.24;101910.34;4961664;28;98246;-76
2021/04/04 06:54:26;;;;;;;13.20;7.10;;;;;;;4.37;32.25;101909.13;4994337;28;99393;-75
2021/04/04 06:57:02;;;;;;;10.18;6.65;;;;;;;4.44;33.38;101907.00;4979975;28;98926;-76
2021/04/04 06:59:35;;;;;;;12.80;7.95;;;;;;;4.48;32.07;101906.34;4977234;28;96847;-76
2021/04/04 07:02:06;;;;;;;12.52;6.57;;;;;;;4.51;32.26;101908.28;4995602;28;97440;-76
2021/04/04 07:04:38;;;;;;;12.15;7.80;;;;;;;4.56;32.88;101901.56;4979045;28;98057;-76
2021/04/04 07:07:27;;;;;;;11.40;7.55;;;;;;;4.60;33.82;101896.59;4981122;28;97689;-76
2021/04/04 07:10:14;;;;;;;13.27;7.18;;;;;;;4.66;33.53;101893.44;4961612;28;97176;-76
2021/04/04 07:12:54;;;;;;;15.57;6.95;;;;;;;4.68;32.40;101899.72;4964398;28;97588;-77
2021/04/04 07:15:35;;;;;;;11.30;7.28;;;;;;;4.70;32.96;101892.81;4980684;28;97598;-76
2021/04/04 07:18:21;;;;;;;11.57;7.00;;;;;;;4.65;32.68;101905.69;4963551;28;99778;-76
2021/04/04 07:21:06;;;;;;;14.32;7.75;;;;;;;4.61;33.75;101914.22;4962873;28;97441;-76
2021/04/04 07:23:57;;;;;;;11.05;6.90;;;;;;;4.63;33.74;101898.50;4982050;28;96867;-76
2021/04/04 07:26:37;;;;;;;15.73;7.43;;;;;;;4.60;34.33;101908.88;4981841;28;97459;-75
2021/04/04 07:29:25;;;;;;;16.55;7.30;;;;;;;4.60;34.47;101914.13;4974905;28;97858;-76
2021/04/04 07:31:59;;;;;;;12.18;7.40;;;;;;;4.63;32.41;101904.69;4984335;28;97237;-76
2021/04/04 07:34:30;;;;;;;12.77;6.97;;;;;;;4.68;32.48;101902.34;4958436;28;96845;-76
2021/04/04 07:37:02;;;;;;;18.52;8.88;;;;;;;4.74;32.27;101898.38;4986690;28;97563;-76
2021/04/04 07:39:34;;;;;;;16.65;8.60;;;;;;;4.72;32.74;101902.63;4988653;28;97304;-76
2021/04/04 07:42:10;;;;;;;14.77;8.32;;;;;;;4.70;33.12;101893.72;4970367;28;97496;-76
2021/04/04 07:44:41;;;;;;;11.15;7.53;;;;;;;4.74;32.47;101893.09;4979083;28;97398;-76
2021/04/04 07:47:15;;;;;;;13.43;7.60;;;;;;;4.81;32.36;101884.75;4962109;28;100067;-76
2021/04/04 07:49:44;;;;;;;11.63;7.80;;;;;;;4.91;31.88;101892.41;4987195;28;99494;-76
2021/04/04 07:52:18;;;;;;;10.57;7.15;;;;;;;4.97;32.27;101900.69;4987291;28;97280;-76
2021/04/04 07:54:56;;;;;;;16.85;7.65;;;;;;;4.98;33.70;101902.53;4984497;28;97684;-76
2021/04/04 07:57:28;;;;;;;11.98;7.10;;;;;;;5.02;33.41;101890.44;4950096;28;99377;-77
2021/04/04 07:59:58;;;;;;;12.93;7.55;;;;;;;5.12;32.20;101882.28;4967647;28;98066;-77
2021/04/04 08:02:29;;;;;;;13.85;7.53;;;;;;;5.19;32.30;101887.13;4983893;28;97325;-77
2021/04/04 08:05:02;;;;;;;8.98;6.43;;;;;;;5.24;32.14;101877.75;4986545;28;97478;-76
2021/04/04 08:07:30;;;;;;;13.68;6.90;;;;;;;5.28;31.63;101882.41;4999096;28;100922;-76
2021/04/04 08:10:01;;;;;;;12.55;7.50;;;;;;;5.36;31.72;101880.22;4950523;28;99835;-77
2021/04/04 08:12:35;;;;;;;16.63;8.00;;;;;;;5.41;31.94;101865.56;4965292;28;96816;-76
2021/04/04 08:15:06;;;;;;;16.35;7.45;;;;;;;5.45;31.69;101863.19;4985534;28;96874;-77
2021/04/04 08:17:35;;;;;;;17.27;8.68;;;;;;;5.54;31.44;101865.47;4982858;28;99301;-76
2021/04/04 08:20:07;;;;;;;11.23;6.72;;;;;;;5.55;31.64;101855.00;4967599;28;98199;-77
2021/04/04 08:22:36;;;;;;;13.57;7.32;;;;;;;5.61;31.54;101847.41;4966402;28;98962;-76
2021/04/04 08:25:06;;;;;;;13.75;7.00;;;;;;;5.69;31.25;101847.84;4984758;28;96842;-76
2021/04/04 08:27:34;;;;;;;14.05;7.72;;;;;;;5.78;31.20;101854.56;4966595;28;101078;-76
2021/04/04 08:30:08;;;;;;;16.50;7.60;;;;;;;5.88;31.27;101848.09;4983824;28;99165;-76
2021/04/04 08:32:44;;;;;;;15.07;6.85;;;;;;;5.96;31.54;101849.41;4985805;28;97150;-76
2021/04/04 08:35:14;;;;;;;15.27;8.25;;;;;;;6.03;31.01;101855.13;4975477;28;97905;-77
2021/04/04 08:37:44;;;;;;;19.67;7.43;;;;;;;6.07;31.05;101849.22;4967222;28;99661;-77
2021/04/04 08:40:14;;;;;;;14.27;7.80;;;;;;;6.13;31.29;101844.28;4983621;28;97271;-77
2021/04/04 08:42:42;;;;;;;13.63;7.13;;;;;;;6.17;31.01;101837.44;4986603;28;97674;-77
2021/04/04 08:45:12;;;;;;;11.45;7.90;;;;;;;6.16;31.01;101843.50;4986260;28;97766;-77
2021/04/04 08:47:42;;;;;;;12.88;8.23;;;;;;;6.11;31.11;101840.63;4982964;28;98111;-76
2021/04/04 08:50:12;;;;;;;12.80;7.10;;;;;;;6.15;31.14;101837.34;4967946;28;99005;-77
2021/04/04 08:52:45;;;;;;;11.82;8.00;;;;;;;6.25;31.04;101837.00;4969602;28;96987;-77
2021/04/04 08:55:18;;;;;;;14.70;8.95;;;;;;;6.35;30.86;101840.19;5001727;28;97764;-78
2021/04/04 08:57:47;;;;;;;12.93;9.20;;;;;;;6.39;30.85;101845.75;4983689;28;100373;-78
2021/04/04 09:00:15;;;;;;;14.20;7.70;;;;;;;6.43;31.11;101836.25;4953281;28;99700;-78
2021/04/04 09:03:05;;;;;;;11.13;6.78;;;;;;;6.46;31.15;101826.75;4969575;28;97649;-77
2021/04/04 09:05:34;;;;;;;16.42;7.10;;;;;;;6.49;31.14;101840.13;4967522;28;97745;-77
2021/04/04 09:08:03;;;;;;;12.55;7.25;;;;;;;6.52;30.77;101827.09;4969570;28;97793;-77
2021/04/04 09:10:32;;;;;;;11.93;8.05;;;;;;;6.57;30.90;101835.25;4969498;28;99333;-78
2021/04/04 09:13:17;;;;;;;11.88;7.30;;;;;;;6.56;30.82;101833.44;4952175;28;97234;-77
2021/04/04 09:15:48;;;;;;;10.00;6.80;;;;;;;6.54;30.87;101832.47;4966496;28;97563;-76
2021/04/04 09:18:16;;;;;;;11.10;6.50;;;;;;;6.55;30.81;101828.97;4963940;28;99887;-76
2021/04/04 09:20:45;;;;;;;15.07;8.25;;;;;;;6.58;30.89;101824.75;4964001;28;99018;-75
2021/04/04 09:23:13;;;;;;;11.02;6.25;;;;;;;6.70;30.81;101827.16;4978902;28;98771;-75
2021/04/04 09:25:48;;;;;;;17.05;7.55;;;;;;;6.76;31.09;101817.78;4980453;28;97150;-74
2021/04/04 09:28:15;;;;;;;13.32;6.80;;;;;;;6.89;30.51;101827.31;4961252;28;100538;-75
2021/04/04 09:30:44;;;;;;;13.38;6.80;;;;;;;6.96;30.67;101819.75;4960707;28;97900;-75
2021/04/04 09:33:12;;;;;;;20.23;7.20;;;;;;;7.04;30.33;101821.06;4979971;28;97436;-75
2021/04/04 09:35:41;;;;;;;13.35;6.82;;;;;;;7.03;30.39;101819.28;4945700;28;97147;-75
2021/04/04 09:38:11;;;;;;;11.27;7.35;;;;;;;7.04;30.40;101822.78;4943835;28;99551;-75
2021/04/04 09:40:38;;;;;;;11.95;6.53;;;;;;;7.05;30.10;101819.34;4993727;28;99689;-77
2021/04/04 09:43:07;;;;;;;14.45;6.45;;;;;;;7.07;30.64;101820.34;4980012;28;97506;-75
2021/04/04 09:45:34;;;;;;;15.27;7.57;;;;;;;7.12;30.48;101810.88;4979212;28;97478;-76
2021/04/04 09:48:17;;;;;;;10.80;7.72;;;;;;;7.25;30.30;101815.97;4961907;28;99251;-75
2021/04/04 09:50:45;;;;;;;14.35;6.68;;;;;;;7.25;30.04;101808.03;4994521;28;99497;-76
2021/04/04 09:53:12;;;;;;;12.50;6.38;;;;;;;7.27;30.12;101806.38;4962793;28;96720;-77
2021/04/04 09:55:44;;;;;;;9.95;6.55;;;;;;;7.29;30.70;101803.81;4960733;28;97507;-75
2021/04/04 09:58:14;;;;;;;12.13;7.25;;;;;;;7.34;29.89;101802.28;4977965;28;99369;-75
2021/04/04 10:00:43;;;;;;;11.43;7.03;;;;;;;7.37;29.71;101800.69;4993599;28;97819;-76
2021/04/04 10:03:13;;;;;;;13.98;7.28;;;;;;;7.33;30.00;101793.41;4960733;28;97302;-76
2021/04/04 10:05:42;;;;;;;10.52;7.43;;;;;;;7.29;30.14;101798.50;4960207;28;98024;-76
2021/04/04 10:08:12;;;;;;;13.45;6.95;;;;;;;7.33;30.29;101797.84;4994544;28;99533;-74
2021/04/04 10:10:40;;;;;;;13.27;6.95;;;;;;;7.39;30.27;101785.78;4979284;28;98755;-76
2021/04/04 10:13:07;;;;;;;19.10;6.88;;;;;;;7.48;30.07;101791.59;4963118;28;97343;-74
2021/04/04 10:15:42;;;;;;;16.02;7.20;;;;;;;7.55;29.78;101787.47;4995674;28;97290;-75
2021/04/04 10:18:09;;;;;;;13.05;7.22;;;;;;;7.61;29.86;101783.41;4993352;28;97704;-75
2021/04/04 10:20:38;;;;;;;17.05;8.20;;;;;;;7.63;29.83;101791.44;4962343;28;99340;-75
2021/04/04 10:23:07;;;;;;;13.55;7.95;;;;;;;7.65;29.66;101769.50;4993075;28;97496;-75
2021/04/04 10:25:35;;;;;;;10.18;6.95;;;;;;;7.71;29.66;101768.88;4961179;28;97007;-76
2021/04/04 10:28:05;;;;;;;11.43;7.43;;;;;;;7.72;29.64;101776.91;4978433;28;99091;-75
2021/04/04 10:30:32;;;;;;;12.43;7.68;;;;;;;7.76;29.79;101762.97;4964032;28;97461;-75
2021/04/04 10:33:20;;;;;;;13.48;8.05;;;;;;;7.86;29.83;101766.94;4977540;28;97090;-76
2021/04/04 10:35:47;;;;;;;11.55;7.65;;;;;;;7.90;29.33;101774.22;4977903;28;98068;-76
2021/04/04 10:38:16;;;;;;;8.02;7.22;;;;;;;7.91;29.07;101766.31;4961198;28;100875;-75
2021/04/04 10:40:48;;;;;;;13.82;7.20;;;;;;;7.89;28.96;101768.00;4977211;28;98726;-76
2021/04/04 10:43:18;;;;;;;11.73;7.85;;;;;;;7.86;29.08;101770.50;4961323;28;97292;-76
2021/04/04 10:45:59;;;;;;;14.80;8.30;;;;;;;7.87;29.09;101761.75;4961448;28;98253;-76
2021/04/04 10:48:28;;;;;;;9.55;7.93;;;;;;;7.93;29.29;101763.78;4959364;28;100754;-77
2021/04/04 10:50:55;;;;;;;13.60;7.55;;;;;;;8.01;29.12;101762.38;4960857;28;99105;-77
2021/04/04 10:53:22;;;;;;;15.15;8.05;;;;;;;8.07;29.00;101758.28;4944059;28;97315;-76
2021/04/04 10:55:50;;;;;;;16.75;7.75;;;;;;;8.03;28.67;101756.31;4960491;28;97781;-75
2021/04/04 10:58:20;;;;;;;15.93;8.25;;;;;;;8.05;28.91;101765.25;4959775;28;97582;-76
2021/04/04 11:00:47;;;;;;;11.20;6.93;;;;;;;8.04;28.83;101755.47;4960061;28;101217;-75
2021/04/04 11:03:15;;;;;;;14.85;7.35;;;;;;;8.09;28.99;101753.03;4960817;28;96885;-76
2021/04/04 11:05:42;;;;;;;9.55;6.68;;;;;;;8.16;29.01;101747.19;4951587;28;97975;-76
2021/04/04 11:08:09;;;;;;;14.82;7.85;;;;;;;8.13;29.05;101747.94;4963605;28;97881;-76
2021/04/04 11:10:37;;;;;;;11.27;7.32;;;;;;;8.13;28.70;101744.38;4981730;28;99315;-76
2021/04/04 11:13:05;;;;;;;10.98;7.30;;;;;;;8.18;28.90;101748.16;4963760;28;97289;-76
2021/04/04 11:15:35;;;;;;;14.95;7.50;;;;;;;8.22;28.62;101735.09;4963194;28;97162;-76
2021/04/04 11:18:09;;;;;;;11.68;6.93;;;;;;;8.27;28.56;101742.38;4980734;28;97112;-76
2021/04/04 11:20:37;;;;;;;13.15;6.95;;;;;;;8.30;28.60;101738.13;4996768;28;99807;-75
2021/04/04 11:23:04;;;;;;;11.77;8.02;;;;;;;8.31;28.53;101731.06;4979354;28;97505;-76
2021/04/04 11:25:31;;;;;;;9.77;7.00;;;;;;;8.27;28.93;101730.03;4964107;28;97088;-76
2021/04/04 11:27:58;;;;;;;13.07;7.53;;;;;;;8.30;28.81;101722.19;4963631;28;98119;-76
2021/04/04 11:30:39;;;;;;;11.93;7.57;;;;;;;8.31;28.52;101733.72;4962791;28;101420;-75
2021/04/04 11:33:34;;;;;;;9.63;6.85;;;;;;;8.27;28.75;101716.78;4963231;28;97582;-76
2021/04/04 11:36:11;;;;;;;12.65;7.05;;;;;;;8.31;28.54;101721.38;4945459;28;97022;-76
2021/04/04 11:38:40;;;;;;;13.32;7.53;;;;;;;8.37;28.54;101707.50;4946857;28;98107;-75
2021/04/04 11:41:16;;;;;;;14.00;7.20;;;;;;;8.38;28.56;101699.59;4980520;28;97584;-77
2021/04/04 11:43:45;;;;;;;17.73;7.80;;;;;;;8.40;28.64;101694.34;4963517;28;97355;-75
2021/04/04 11:46:44;;;;;;;11.73;7.28;;;;;;;8.41;28.53;101688.19;4967413;28;96838;-74